Nearby METAR Reports

 

KICL - Clarinda, Iowa, USA
Distance from station: N 49mi, 79km
Updated: Mon, 21-May-2018 6:55pm CDT
Clear
Clear
 Wind from WNW
Wind: WNW 5 mph , 7 km/h
Temperature: 75°F , 24°C
Dew Point: 54°F , 12°C
Humidity: 47%
Barometer: 29.99 inHg , 1015.6 hPa
Clouds: Clear
Visibility: 10 miles , 16 km
2018/05/21 23:55 KICL 212355Z AUTO 30004KT 10SM CLR 24/12 A2999 RMK AO2
KDSM - Des Moines, Iowa, USA
Distance from station: NNE 122mi, 196km
Updated: Mon, 21-May-2018 6:54pm CDT
Few Clouds
Few Clouds
 Wind from NNE
Wind: NNE 5 mph , 7 km/h
Temperature: 72°F , 22°C
Dew Point: 63°F , 17°C
Humidity: 73%
Barometer: 29.96 inHg , 1014.6 hPa
Clouds: Few Clouds
Visibility: 10 miles , 16 km
Cloud details: Few Clouds 2200 ft
Few Clouds 6500 ft
2018/05/21 23:54 KDSM 212354Z 03004KT 10SM FEW022 FEW065 22/17 A2996 RMK AO2 SLP140 T02220167 10233 20183 56009
KFNB - Falls City, Nebraska, USA
Distance from station: W 50mi, 80km
Updated: Mon, 21-May-2018 6:53pm CDT
Clear
Clear
 Wind from NNW
Wind: NNW 7 mph , 11 km/h
Temperature: 79°F , 26°C
Dew Point: 54°F , 12°C
Humidity: 42%
Barometer: 29.95 inHg , 1014.2 hPa
Clouds: Clear
Visibility: 10 miles , 16 km
2018/05/21 23:53 KFNB 212353Z AUTO 34006KT 10SM CLR 26/12 A2995 RMK AO2 SLP137 T02560122 10256 20211 56015
 
KMCI - Kansas City, Missouri, USA
Distance from station: S 65mi, 104km
Updated: Mon, 21-May-2018 6:53pm CDT
Mostly cloudy
Mostly cloudy
 Wind from calm
Wind: Calm
Temperature: 70°F , 21°C
Dew Point: 59°F , 15°C
Humidity: 69%
Barometer: 29.99 inHg , 1015.6 hPa
Clouds: Mostly cloudy
Visibility: 10 miles , 16 km
Cloud details: Few Clouds 3000 ft
Mostly cloudy 25000 ft
2018/05/21 23:53 KMCI 212353Z 00000KT 10SM FEW030 BKN250 21/15 A2999 RMK AO2 SLP151 T02060150 10222 20167 56017
KOMA - Omaha, Nebraska, USA
Distance from station: NNW 105mi, 169km
Updated: Mon, 21-May-2018 6:52pm CDT
Few Clouds
Few Clouds
 Wind from varies
Wind: varies 3 mph , 6 km/h
Temperature: 75°F , 24°C
Dew Point: 55°F , 13°C
Humidity: 50%
Barometer: 29.95 inHg , 1014.2 hPa
Clouds: Few Clouds
Visibility: 10 miles , 16 km
Cloud details: Few Clouds 4000 ft
Few Clouds 25000 ft
2018/05/21 23:52 KOMA 212352Z VRB03KT 10SM FEW040 FEW250 24/13 A2995 RMK AO2 SLP137 T02390133 10250 20183 56018
KRDK - Red Oak, Iowa, USA
Distance from station: N 70mi, 112km
Updated: Mon, 21-May-2018 7:15pm CDT
Clear
Clear
 Wind from NW
Wind: NW 3 mph , 6 km/h
Temperature: 75°F , 24°C
Dew Point: 55°F , 13°C
Humidity: 50%
Barometer: 29.97 inHg , 1014.9 hPa
Clouds: Clear
Visibility: 10 miles , 16 km
2018/05/22 00:15 KRDK 220015Z AUTO 32003KT 10SM CLR 24/13 A2997 RMK AO2
 
KSTJ - Saint Joseph, Missouri, USA
Distance from station: SW 23mi, 37km
Updated: Mon, 21-May-2018 6:53pm CDT
Clear
Clear
 Wind from S
Wind: S 5 mph , 7 km/h
Temperature: 73°F , 23°C
Dew Point: 61°F , 16°C
Humidity: 65%
Barometer: 29.97 inHg , 1014.9 hPa
Clouds: Clear
Visibility: 10 miles , 16 km
2018/05/21 23:53 KSTJ 212353Z 17004KT 10SM CLR 23/16 A2997 RMK AO2 SLP144 LAST T02330156 10233 20183 56017
KTOP - Topeka, Kansas, USA
Distance from station: SW 85mi, 137km
Updated: Wed, 31-Dec-1969 6:00pm CST
NOT Current
unable to load KTOP data RC=404 Not Found
unable to load KTOP data RC=404 Not Found
 
KICT - Wichita, Kansas, USA
Distance from station: SW 215mi, 346km
Updated: Mon, 21-May-2018 6:53pm CDT
Few Clouds
Few Clouds
 Wind from S
Wind: S 9 mph , 15 km/h
Temperature: 79°F , 26°C
Dew Point: 61°F , 16°C
Humidity: 54%
Barometer: 29.97 inHg , 1014.9 hPa
Clouds: Few Clouds
Visibility: 10 miles , 16 km
Cloud details: Few Clouds 4500 ft
Few Clouds 25000 ft
2018/05/21 23:53 KICT 212353Z 19008KT 10SM FEW045 FEW250 26/16 A2997 RMK AO2 SLP139 T02560156 10261 20228 56016